Time;durP1;ratioP1;P1;durP2;ratioP2;P2;SDS_P1;SDS_P2;PMS_P1;PMS_P2;Temp;Humidity;BMP_temperature;BMP_pressure;BME280_temperature;BME280_humidity;BME280_pressure;Samples;Min_cycle;Max_cycle;Signal;HPM_P1;HPM_P2
2024/04/11 00:00:47;;;;;;;4.22;0.70;;;12.60;99.90;;;;;;5376578;26;20507;-75
2024/04/11 00:03:14;;;;;;;3.22;0.85;;;12.60;99.90;;;;;;5383118;26;20004;-73
2024/04/11 00:05:40;;;;;;;4.80;0.60;;;12.60;99.90;;;;;;5378260;26;20073;-73
2024/04/11 00:08:06;;;;;;;7.55;0.98;;;12.60;99.90;;;;;;5373467;26;20361;-73
2024/04/11 00:10:32;;;;;;;4.90;0.57;;;12.70;99.90;;;;;;5374986;26;20008;-72
2024/04/11 00:12:58;;;;;;;3.85;0.30;;;12.60;99.90;;;;;;5415566;26;20028;-73
2024/04/11 00:15:23;;;;;;;6.18;0.70;;;12.60;99.90;;;;;;5390858;26;20014;-72
2024/04/11 00:17:49;;;;;;;1.83;0.50;;;12.60;99.90;;;;;;5382630;26;20044;-73
2024/04/11 00:20:15;;;;;;;1.80;0.45;;;12.60;99.90;;;;;;5398133;26;19992;-74
2024/04/11 00:22:40;;;;;;;1.05;0.60;;;12.60;99.90;;;;;;5376785;26;20014;-72
2024/04/11 00:25:06;;;;;;;1.40;0.20;;;12.60;99.90;;;;;;5372155;26;20020;-72
2024/04/11 00:27:33;;;;;;;3.65;0.40;;;12.60;99.90;;;;;;5377337;26;20011;-72
2024/04/11 00:29:59;;;;;;;2.63;0.60;;;12.60;99.90;;;;;;5374497;26;20110;-73
2024/04/11 00:32:25;;;;;;;4.28;0.50;;;12.60;99.90;;;;;;5373922;26;20008;-75
2024/04/11 00:34:50;;;;;;;11.77;0.80;;;12.60;99.90;;;;;;5389511;26;19996;-73
2024/04/11 00:37:16;;;;;;;0.65;0.32;;;12.60;99.90;;;;;;5394173;26;19995;-74
2024/04/11 00:39:42;;;;;;;4.28;1.08;;;12.60;99.90;;;;;;5387497;26;20015;-73
2024/04/11 00:42:08;;;;;;;6.50;1.38;;;12.60;99.90;;;;;;5371363;26;19992;-72
2024/04/11 00:44:36;;;;;;;3.95;0.50;;;12.70;99.90;;;;;;5379227;26;20004;-73
2024/04/11 00:47:09;;;;;;;5.25;0.93;;;12.60;99.90;;;;;;5385417;26;20000;-72
2024/04/11 00:49:36;;;;;;;5.70;0.93;;;12.60;99.90;;;;;;5380702;26;20016;-72
2024/04/11 00:52:03;;;;;;;1.50;0.82;;;12.70;99.90;;;;;;5376260;26;20016;-73
2024/04/11 00:54:30;;;;;;;4.35;0.30;;;12.60;99.90;;;;;;5380605;26;20082;-73
2024/04/11 00:56:59;;;;;;;4.80;0.60;;;12.70;99.90;;;;;;5376787;26;20387;-73
2024/04/11 00:59:25;;;;;;;3.85;0.90;;;12.60;99.90;;;;;;5398256;26;20051;-72
2024/04/11 01:01:51;;;;;;;7.97;0.50;;;12.60;99.90;;;;;;5379461;26;20000;-71
2024/04/11 01:04:19;;;;;;;2.65;0.40;;;12.60;99.90;;;;;;5378459;26;20000;-74
2024/04/11 01:09:38;;;;;;;4.32;0.70;;;12.60;99.90;;;;;;5380067;26;20373;-74
2024/04/11 01:12:04;;;;;;;2.88;0.35;;;12.50;99.90;;;;;;5376493;26;20011;-73
2024/04/11 01:14:33;;;;;;;5.32;0.85;;;12.50;99.90;;;;;;5382036;26;20000;-73
2024/04/11 01:16:59;;;;;;;4.50;0.50;;;12.50;99.90;;;;;;5376574;26;20012;-73
2024/04/11 01:19:25;;;;;;;1.90;0.80;;;12.50;99.90;;;;;;5383621;26;20008;-72
2024/04/11 01:21:50;;;;;;;6.28;1.02;;;12.50;99.90;;;;;;5399614;26;20008;-72
2024/04/11 01:24:16;;;;;;;7.72;0.60;;;12.50;99.90;;;;;;5380062;26;20012;-73
2024/04/11 01:26:43;;;;;;;3.75;0.40;;;12.60;99.90;;;;;;5398794;26;20008;-73
2024/04/11 01:29:10;;;;;;;2.92;0.30;;;12.60;99.90;;;;;;5384444;26;19995;-72
2024/04/11 01:31:37;;;;;;;2.42;0.47;;;12.60;99.90;;;;;;5386227;26;20011;-71
2024/04/11 01:34:04;;;;;;;7.40;0.95;;;12.60;99.90;;;;;;5377596;26;20015;-71
2024/04/11 01:36:30;;;;;;;5.15;0.75;;;12.60;99.90;;;;;;5382461;26;20084;-72
2024/04/11 01:38:56;;;;;;;3.85;0.40;;;12.50;99.90;;;;;;5385517;26;20004;-74
2024/04/11 01:41:23;;;;;;;4.13;0.38;;;12.50;99.90;;;;;;5381373;26;20453;-71
2024/04/11 01:43:50;;;;;;;4.68;0.43;;;12.60;99.90;;;;;;5382503;26;20016;-73
2024/04/11 01:46:18;;;;;;;4.38;0.40;;;12.60;99.90;;;;;;5394258;26;20023;-73
2024/04/11 01:48:44;;;;;;;5.82;0.52;;;12.60;99.90;;;;;;5390021;26;20355;-73
2024/04/11 01:51:09;;;;;;;2.40;0.47;;;12.60;99.90;;;;;;5391062;26;20010;-73
2024/04/11 01:53:37;;;;;;;4.32;1.30;;;12.60;99.90;;;;;;5388050;26;19996;-73
2024/04/11 01:56:04;;;;;;;5.55;1.02;;;12.60;99.90;;;;;;5374924;26;19996;-73
2024/04/11 01:58:30;;;;;;;7.97;0.90;;;12.50;99.90;;;;;;5399665;26;20007;-74
2024/04/11 02:01:09;;;;;;;1.88;0.70;;;12.50;99.90;;;;;;5381834;26;20073;-74
2024/04/11 02:03:41;;;;;;;4.20;0.20;;;12.50;99.90;;;;;;5378744;26;20011;-74
2024/04/11 02:06:07;;;;;;;2.65;0.63;;;12.60;99.90;;;;;;5360679;26;20008;-72
2024/04/11 02:08:33;;;;;;;4.40;0.45;;;12.50;99.90;;;;;;5391818;26;20011;-73
2024/04/11 02:11:00;;;;;;;9.40;1.35;;;12.50;99.90;;;;;;5383986;26;20000;-74
2024/04/11 02:13:26;;;;;;;3.00;0.40;;;12.60;99.90;;;;;;5389143;26;20012;-73
2024/04/11 02:15:52;;;;;;;2.65;0.30;;;12.60;99.90;;;;;;5387320;26;20019;-73
2024/04/11 02:18:20;;;;;;;3.38;0.63;;;12.70;99.90;;;;;;5388405;26;20078;-73
2024/04/11 02:20:45;;;;;;;1.52;0.40;;;12.70;99.90;;;;;;5400095;26;19995;-74
2024/04/11 02:23:11;;;;;;;2.05;0.50;;;12.70;99.90;;;;;;5397040;26;20000;-74
2024/04/11 02:25:37;;;;;;;3.03;0.65;;;12.80;99.90;;;;;;5391458;26;20406;-73
2024/04/11 02:28:03;;;;;;;6.50;0.57;;;12.80;99.90;;;;;;5393558;26;20099;-72
2024/04/11 02:30:29;;;;;;;4.28;1.10;;;12.90;99.90;;;;;;5343187;26;20049;-74
2024/04/11 02:32:55;;;;;;;5.53;0.77;;;12.90;99.90;;;;;;5382655;26;20019;-72
2024/04/11 02:35:22;;;;;;;3.13;0.40;;;12.90;99.90;;;;;;5382257;26;19996;-74
2024/04/11 02:37:51;;;;;;;5.95;0.60;;;12.90;99.90;;;;;;5401693;26;19996;-74
2024/04/11 02:40:17;;;;;;;6.17;0.73;;;12.90;99.90;;;;;;5377688;26;20087;-72
2024/04/11 02:42:43;;;;;;;3.15;0.65;;;12.90;99.90;;;;;;5383524;26;20011;-73
2024/04/11 02:45:08;;;;;;;3.72;0.70;;;12.90;99.90;;;;;;5392592;26;20446;-73
2024/04/11 02:47:36;;;;;;;7.03;0.50;;;12.90;99.90;;;;;;5392005;26;19999;-74
2024/04/11 02:50:02;;;;;;;3.85;0.68;;;13.00;99.90;;;;;;5385498;26;20000;-72
2024/04/11 02:52:28;;;;;;;8.68;0.75;;;12.90;99.90;;;;;;5379307;26;20026;-72
2024/04/11 02:54:54;;;;;;;3.83;0.52;;;13.00;99.90;;;;;;5387295;26;20011;-72
2024/04/11 02:57:21;;;;;;;6.57;1.23;;;12.90;99.90;;;;;;5386621;26;20004;-73
2024/04/11 02:59:51;;;;;;;2.53;0.40;;;12.90;99.90;;;;;;5387949;26;20015;-74
2024/04/11 03:02:17;;;;;;;5.45;0.50;;;12.90;99.90;;;;;;5398018;26;20344;-74
2024/04/11 03:04:43;;;;;;;3.95;0.47;;;12.90;99.90;;;;;;5384451;26;20004;-73
2024/04/11 03:07:09;;;;;;;4.38;0.93;;;12.90;99.90;;;;;;5395558;26;20015;-74
2024/04/11 03:09:35;;;;;;;4.03;0.65;;;12.90;99.90;;;;;;5385582;26;20035;-75
2024/04/11 03:12:01;;;;;;;3.67;0.80;;;12.80;99.90;;;;;;5380268;26;20507;-73
2024/04/11 03:14:27;;;;;;;7.03;0.65;;;12.80;99.90;;;;;;5379260;26;20003;-70
2024/04/11 03:16:52;;;;;;;10.90;1.45;;;12.80;99.90;;;;;;5386829;26;21424;-75
2024/04/11 03:19:19;;;;;;;3.65;0.77;;;12.80;99.90;;;;;;5388538;26;20015;-73
2024/04/11 03:21:44;;;;;;;3.45;0.73;;;12.80;99.90;;;;;;5379927;26;20551;-73
2024/04/11 03:24:12;;;;;;;3.78;0.70;;;12.80;99.90;;;;;;5385967;26;20058;-73
2024/04/11 03:26:40;;;;;;;3.47;0.30;;;12.80;99.90;;;;;;5401425;26;20003;-72
2024/04/11 03:29:05;;;;;;;8.43;0.90;;;12.80;99.90;;;;;;5392174;26;20106;-73
2024/04/11 03:31:31;;;;;;;1.48;0.30;;;12.80;99.90;;;;;;5399276;26;20016;-70
2024/04/11 03:33:59;;;;;;;6.05;1.17;;;12.80;99.90;;;;;;5401549;26;20012;-74
2024/04/11 03:36:25;;;;;;;4.05;0.63;;;12.80;99.90;;;;;;5378379;26;20006;-73
2024/04/11 03:38:54;;;;;;;2.33;0.60;;;12.80;99.90;;;;;;5374274;26;20350;-74
2024/04/11 03:41:20;;;;;;;2.10;0.50;;;12.80;99.90;;;;;;5377498;26;20045;-74
2024/04/11 03:43:55;;;;;;;4.72;0.90;;;12.80;99.90;;;;;;5398479;26;20012;-73
2024/04/11 03:46:23;;;;;;;4.75;0.70;;;12.80;99.90;;;;;;5374061;26;20000;-73
2024/04/11 03:48:51;;;;;;;6.35;0.82;;;12.80;99.90;;;;;;5398431;26;20748;-73
2024/04/11 03:51:22;;;;;;;11.80;0.95;;;12.70;99.90;;;;;;5372830;26;20000;-72
2024/04/11 03:53:56;;;;;;;2.45;0.60;;;12.70;99.90;;;;;;5401429;26;20334;-72
2024/04/11 03:56:23;;;;;;;3.53;0.80;;;12.80;99.90;;;;;;5371939;26;20637;-74
2024/04/11 03:58:56;;;;;;;4.88;1.35;;;12.70;99.90;;;;;;5394766;26;20012;-74
2024/04/11 04:01:22;;;;;;;3.28;0.50;;;12.70;99.90;;;;;;5375708;26;20014;-73
2024/04/11 04:03:52;;;;;;;4.18;1.15;;;12.80;99.90;;;;;;5387501;26;20004;-73
2024/04/11 04:06:18;;;;;;;5.07;1.15;;;12.80;99.90;;;;;;5378850;26;20015;-74
2024/04/11 04:08:45;;;;;;;2.28;0.40;;;12.70;99.90;;;;;;5375776;26;20014;-74
2024/04/11 04:11:12;;;;;;;2.38;0.50;;;12.80;99.90;;;;;;5372802;26;20052;-73
2024/04/11 04:13:39;;;;;;;5.25;1.65;;;12.80;99.90;;;;;;5376217;26;20050;-73
2024/04/11 04:16:10;;;;;;;4.85;1.08;;;12.70;99.90;;;;;;5379559;26;20000;-72
2024/04/11 04:18:40;;;;;;;3.53;0.52;;;12.80;99.90;;;;;;5394082;26;20004;-75
2024/04/11 04:21:07;;;;;;;3.88;0.57;;;12.70;99.90;;;;;;5383695;26;20000;-72
2024/04/11 04:23:34;;;;;;;1.92;0.60;;;12.70;99.90;;;;;;5375126;26;20036;-74
2024/04/11 04:26:08;;;;;;;3.50;0.65;;;12.70;99.90;;;;;;5368683;26;20000;-71
2024/04/11 04:28:35;;;;;;;2.33;0.40;;;12.70;99.90;;;;;;5391241;26;20008;-72
2024/04/11 04:31:20;;;;;;;5.82;1.02;;;12.70;99.90;;;;;;5397279;26;20004;-73
2024/04/11 04:33:47;;;;;;;4.35;0.73;;;12.70;99.90;;;;;;5381325;26;20096;-74
2024/04/11 04:36:16;;;;;;;2.50;0.52;;;12.60;99.90;;;;;;5379771;26;20015;-73
2024/04/11 04:38:44;;;;;;;3.28;0.80;;;12.60;99.90;;;;;;5378983;26;20007;-74
2024/04/11 04:41:11;;;;;;;5.75;0.77;;;12.50;99.90;;;;;;5374290;26;20032;-74
2024/04/11 04:43:37;;;;;;;2.13;0.60;;;12.50;99.90;;;;;;5376065;26;20054;-74
2024/04/11 04:46:03;;;;;;;3.38;0.70;;;12.50;99.90;;;;;;5385427;26;19996;-73
2024/04/11 04:48:29;;;;;;;2.67;0.98;;;12.50;99.90;;;;;;5399142;26;21041;-73
2024/04/11 04:50:55;;;;;;;4.38;0.60;;;12.50;99.90;;;;;;5376845;26;20014;-72
2024/04/11 04:53:21;;;;;;;4.35;0.63;;;12.50;99.90;;;;;;5378462;26;20058;-74
2024/04/11 04:55:47;;;;;;;2.55;0.52;;;12.50;99.90;;;;;;5381697;26;20032;-73
2024/04/11 04:58:12;;;;;;;3.80;0.68;;;12.50;99.90;;;;;;5377475;26;20024;-75
2024/04/11 05:00:38;;;;;;;4.57;1.17;;;12.50;99.90;;;;;;5376197;26;20036;-74
2024/04/11 05:03:08;;;;;;;4.38;0.73;;;12.60;99.90;;;;;;5378901;26;20004;-73
2024/04/11 05:05:37;;;;;;;6.03;0.73;;;12.50;99.90;;;;;;5377255;26;20000;-71
2024/04/11 05:08:07;;;;;;;8.32;0.75;;;12.50;99.90;;;;;;5380990;26;20396;-73
2024/04/11 05:10:37;;;;;;;5.80;0.77;;;12.40;99.90;;;;;;5381741;26;19996;-71
2024/04/11 05:13:09;;;;;;;;;;;12.30;99.90;;;;;;5384576;26;20016;-73
2024/04/11 05:15:39;;;;;;;5.03;1.15;;;12.20;99.90;;;;;;5383087;26;20289;-75
2024/04/11 05:18:05;;;;;;;3.83;0.75;;;12.10;99.90;;;;;;5385053;26;20023;-70
2024/04/11 05:20:33;;;;;;;2.55;0.93;;;12.10;99.90;;;;;;5381824;26;20951;-71
2024/04/11 05:22:59;;;;;;;9.27;1.02;;;12.00;99.90;;;;;;5379036;26;20004;-75
2024/04/11 05:25:25;;;;;;;1.92;0.60;;;12.00;99.90;;;;;;5381174;26;20000;-74
2024/04/11 05:27:53;;;;;;;4.32;0.85;;;11.90;99.90;;;;;;5386626;26;20036;-72
2024/04/11 05:30:19;;;;;;;2.50;0.90;;;11.90;99.90;;;;;;5376757;26;20030;-74
2024/04/11 05:32:46;;;;;;;3.40;0.98;;;11.90;99.90;;;;;;5387812;26;20007;-73
2024/04/11 05:35:14;;;;;;;7.07;1.60;;;11.90;99.90;;;;;;5379560;26;20004;-74
2024/04/11 05:37:40;;;;;;;10.02;1.17;;;11.90;99.90;;;;;;5393117;26;20000;-74
2024/04/11 05:40:06;;;;;;;4.70;1.02;;;11.90;99.90;;;;;;5388414;26;20077;-71
2024/04/11 05:42:33;;;;;;;3.97;0.70;;;11.80;99.90;;;;;;5377209;26;20728;-74
2024/04/11 05:45:00;;;;;;;3.20;1.20;;;11.80;99.90;;;;;;5378199;26;20075;-73
2024/04/11 05:47:25;;;;;;;5.80;1.42;;;11.80;99.90;;;;;;5369878;21;20056;-73
2024/04/11 05:49:53;;;;;;;3.47;0.90;;;11.80;99.90;;;;;;5429138;21;20018;-75
2024/04/11 05:52:18;;;;;;;4.10;1.50;;;11.80;99.90;;;;;;5423243;26;20047;-75
2024/04/11 05:54:44;;;;;;;3.85;1.45;;;11.80;99.90;;;;;;5431477;26;20046;-75
2024/04/11 05:57:10;;;;;;;3.85;1.50;;;11.80;99.90;;;;;;5401035;26;19995;-75
2024/04/11 05:59:36;;;;;;;4.05;1.40;;;11.80;99.90;;;;;;5396894;26;20435;-74
2024/04/11 06:02:03;;;;;;;12.07;1.73;;;11.90;99.90;;;;;;5391521;26;20015;-75
2024/04/11 06:04:29;;;;;;;8.13;1.63;;;11.90;99.90;;;;;;5388312;26;20019;-75
2024/04/11 06:06:55;;;;;;;6.15;1.67;;;11.90;99.90;;;;;;5385665;26;20035;-75
2024/04/11 06:09:20;;;;;;;1.98;1.10;;;11.80;99.90;;;;;;5390173;26;19999;-74
2024/04/11 06:11:46;;;;;;;7.30;1.08;;;11.80;99.90;;;;;;5389515;26;20038;-73
2024/04/11 06:14:11;;;;;;;11.15;1.75;;;11.80;99.90;;;;;;5389400;26;20012;-75
2024/04/11 06:16:38;;;;;;;4.10;1.35;;;11.80;99.90;;;;;;5389586;26;20004;-74
2024/04/11 06:19:05;;;;;;;8.65;1.98;;;11.80;99.90;;;;;;5392760;26;20026;-75
2024/04/11 06:21:36;;;;;;;8.43;1.50;;;11.80;99.90;;;;;;5389766;26;20004;-75
2024/04/11 06:24:02;;;;;;;6.22;1.80;;;11.70;99.90;;;;;;5386552;26;21533;-75
2024/04/11 06:26:28;;;;;;;6.78;1.65;;;11.70;99.90;;;;;;5396683;26;20077;-74
2024/04/11 06:28:56;;;;;;;6.75;2.00;;;11.70;99.90;;;;;;5391432;26;20015;-74
2024/04/11 06:31:28;;;;;;;2.75;1.30;;;11.70;99.90;;;;;;5387579;26;20696;-76
2024/04/11 06:33:54;;;;;;;8.75;1.70;;;11.80;99.90;;;;;;5388222;26;20014;-75
2024/04/11 06:36:20;;;;;;;5.95;1.55;;;11.80;99.90;;;;;;5390522;26;19996;-74
2024/04/11 06:38:48;;;;;;;4.55;1.15;;;11.80;99.90;;;;;;5399438;26;20496;-75
2024/04/11 06:41:22;;;;;;;3.55;1.63;;;11.80;99.90;;;;;;5387664;26;20004;-73
2024/04/11 06:43:48;;;;;;;3.72;1.27;;;11.90;99.90;;;;;;5388702;26;20394;-74
2024/04/11 06:46:13;;;;;;;4.22;1.50;;;11.90;99.90;;;;;;5380420;26;20019;-73
2024/04/11 06:48:43;;;;;;;7.20;1.40;;;11.90;99.90;;;;;;5397120;26;20347;-73
2024/04/11 06:51:09;;;;;;;6.40;1.58;;;12.00;99.90;;;;;;5390447;26;19999;-74
2024/04/11 06:53:36;;;;;;;6.93;3.30;;;12.00;99.90;;;;;;5389936;26;20015;-74
2024/04/11 06:56:07;;;;;;;5.95;1.60;;;12.00;99.90;;;;;;5393964;26;20015;-73
2024/04/11 06:58:36;;;;;;;5.18;1.45;;;12.00;99.90;;;;;;5391046;26;20000;-73
2024/04/11 07:01:03;;;;;;;4.93;1.60;;;12.00;99.90;;;;;;5396480;26;20010;-74
2024/04/11 07:03:30;;;;;;;5.60;1.52;;;12.10;99.90;;;;;;5386443;26;20619;-75
2024/04/11 07:06:09;;;;;;;3.35;1.30;;;12.20;99.90;;;;;;5395161;26;20019;-73
2024/04/11 07:08:38;;;;;;;7.30;1.67;;;12.20;99.90;;;;;;5388196;26;20000;-74
2024/04/11 07:11:19;;;;;;;5.97;1.13;;;12.20;99.90;;;;;;5376340;26;20122;-74
2024/04/11 07:13:48;;;;;;;4.07;1.38;;;12.20;99.90;;;;;;5384729;26;20073;-73
2024/04/11 07:16:20;;;;;;;4.43;1.35;;;12.20;99.90;;;;;;5384511;26;20460;-74
2024/04/11 07:18:48;;;;;;;3.85;1.23;;;12.30;99.90;;;;;;5391527;26;20072;-74
2024/04/11 07:21:17;;;;;;;6.78;1.88;;;12.30;99.90;;;;;;5381854;26;20452;-73
2024/04/11 07:24:03;;;;;;;6.88;1.30;;;12.30;99.90;;;;;;5381108;26;20077;-73
2024/04/11 07:26:31;;;;;;;4.05;1.98;;;12.30;99.90;;;;;;5392291;26;20318;-74
2024/04/11 07:29:01;;;;;;;6.72;1.80;;;12.30;99.90;;;;;;5385731;26;20004;-74
2024/04/11 07:31:28;;;;;;;4.65;1.92;;;12.40;99.90;;;;;;5392726;26;20000;-74
2024/04/11 07:33:55;;;;;;;4.70;1.13;;;12.30;99.90;;;;;;5384922;26;20000;-74
2024/04/11 07:36:22;;;;;;;10.13;1.77;;;12.30;99.90;;;;;;5397206;26;19999;-74
2024/04/11 07:38:48;;;;;;;8.93;2.38;;;12.30;99.90;;;;;;5391842;26;20018;-74
2024/04/11 07:41:17;;;;;;;6.03;2.28;;;12.30;99.90;;;;;;5389270;26;20000;-74
2024/04/11 07:43:45;;;;;;;6.75;1.50;;;12.40;99.90;;;;;;5398146;26;20000;-74
2024/04/11 07:46:13;;;;;;;5.93;1.20;;;12.40;99.90;;;;;;5386797;26;20000;-74
2024/04/11 07:48:41;;;;;;;5.43;1.40;;;12.40;99.90;;;;;;5391882;26;20000;-73
2024/04/11 07:51:09;;;;;;;5.03;1.90;;;12.40;99.90;;;;;;5389512;26;20382;-74
2024/04/11 07:53:38;;;;;;;6.07;1.75;;;12.40;99.90;;;;;;5385305;26;20077;-74
2024/04/11 07:56:04;;;;;;;5.00;1.58;;;12.40;99.90;;;;;;5399991;26;20024;-74
2024/04/11 07:58:29;;;;;;;10.32;2.25;;;12.50;99.90;;;;;;5389440;26;20363;-74
2024/04/11 08:00:55;;;;;;;6.90;1.50;;;12.40;99.90;;;;;;5394556;26;20343;-74
2024/04/11 08:03:21;;;;;;;6.32;1.83;;;12.50;99.90;;;;;;5381725;26;20016;-73
2024/04/11 08:05:48;;;;;;;10.10;1.60;;;12.50;99.90;;;;;;5393331;26;20335;-74
2024/04/11 08:08:15;;;;;;;7.80;1.90;;;12.60;99.90;;;;;;5396650;26;20007;-73
2024/04/11 08:10:42;;;;;;;8.70;1.70;;;12.60;99.90;;;;;;5387305;26;20000;-74
2024/04/11 08:13:08;;;;;;;4.47;1.50;;;12.70;99.90;;;;;;5393512;26;20004;-74
2024/04/11 08:15:34;;;;;;;7.50;1.63;;;12.70;99.90;;;;;;5387968;26;20039;-72
2024/04/11 08:18:00;;;;;;;4.80;1.40;;;12.80;99.90;;;;;;5386021;26;20018;-74
2024/04/11 08:20:25;;;;;;;4.85;1.60;;;12.80;99.90;;;;;;5387563;26;20521;-74
2024/04/11 08:22:52;;;;;;;4.32;1.77;;;12.80;99.90;;;;;;5384608;26;20007;-74
2024/04/11 08:25:18;;;;;;;3.38;1.52;;;12.80;99.90;;;;;;5385800;26;20035;-74
2024/04/11 08:27:44;;;;;;;9.10;2.30;;;12.80;99.90;;;;;;5391373;26;20469;-74
2024/04/11 08:30:15;;;;;;;7.10;2.28;;;12.90;99.90;;;;;;5385784;26;20571;-74
2024/04/11 08:32:45;;;;;;;;;;;12.90;99.90;;;;;;5385729;26;20008;-74
2024/04/11 08:35:17;;;;;;;5.43;2.22;;;12.90;99.90;;;;;;5395139;26;19938;-74
2024/04/11 08:37:51;;;;;;;10.13;2.50;;;12.90;99.90;;;;;;5390133;26;20429;-74
2024/04/11 08:40:18;;;;;;;7.13;2.50;;;12.90;99.90;;;;;;5383897;26;20497;-74
2024/04/11 08:42:43;;;;;;;9.23;2.78;;;12.90;99.90;;;;;;5385953;26;20016;-73
2024/04/11 08:45:10;;;;;;;6.93;2.50;;;12.90;99.90;;;;;;5390925;26;20069;-73
2024/04/11 08:47:36;;;;;;;9.82;2.55;;;12.90;99.90;;;;;;5382362;26;19996;-73
2024/04/11 08:50:05;;;;;;;4.10;2.25;;;12.90;99.90;;;;;;5387210;26;20447;-74
2024/04/11 08:52:34;;;;;;;8.32;2.90;;;12.90;99.90;;;;;;5377188;26;20159;-74
2024/04/11 08:55:00;;;;;;;7.85;2.65;;;13.00;99.90;;;;;;5388575;26;20323;-74
2024/04/11 08:57:27;;;;;;;6.68;2.63;;;13.00;99.90;;;;;;5387036;26;20039;-74
2024/04/11 08:59:54;;;;;;;10.13;3.60;;;13.10;99.90;;;;;;5385599;26;20072;-75
2024/04/11 09:02:20;;;;;;;14.18;3.20;;;13.10;99.90;;;;;;5385321;26;20004;-74
2024/04/11 09:04:46;;;;;;;10.32;3.55;;;13.10;99.90;;;;;;5386538;26;20052;-73
2024/04/11 09:07:21;;;;;;;7.25;3.28;;;13.10;99.90;;;;;;5389885;26;20003;-74
2024/04/11 09:09:51;;;;;;;10.02;4.25;;;13.10;99.90;;;;;;5393561;26;20014;-74
2024/04/11 09:12:17;;;;;;;10.32;3.65;;;13.20;99.90;;;;;;5381732;26;20340;-74
2024/04/11 09:14:49;;;;;;;5.90;3.75;;;13.10;99.90;;;;;;5391992;26;20466;-74
2024/04/11 09:17:17;;;;;;;13.45;4.07;;;13.20;99.90;;;;;;5389002;26;20055;-74
2024/04/11 09:19:45;;;;;;;7.65;3.83;;;13.20;99.90;;;;;;5390343;26;20012;-74
2024/04/11 09:22:16;;;;;;;8.52;3.92;;;13.20;99.90;;;;;;5385390;26;20016;-73
2024/04/11 09:24:45;;;;;;;6.25;3.17;;;13.30;99.90;;;;;;5381384;26;20144;-74
2024/04/11 09:27:16;;;;;;;8.32;3.47;;;13.40;99.90;;;;;;5386412;26;20012;-75
2024/04/11 09:29:52;;;;;;;9.20;3.97;;;13.40;99.90;;;;;;5383676;26;20469;-75
2024/04/11 09:32:21;;;;;;;9.90;3.92;;;13.50;99.90;;;;;;5385845;26;20011;-75
2024/04/11 09:34:47;;;;;;;10.07;4.32;;;13.50;99.90;;;;;;5393276;26;20019;-73
2024/04/11 09:37:23;;;;;;;9.65;4.50;;;13.60;99.90;;;;;;5397157;26;20000;-74
2024/04/11 09:39:56;;;;;;;10.07;3.60;;;13.70;99.90;;;;;;5386499;26;20004;-74
2024/04/11 09:42:26;;;;;;;8.52;3.60;;;13.70;99.90;;;;;;5396512;26;20015;-75
2024/04/11 09:44:55;;;;;;;9.63;3.92;;;13.70;99.90;;;;;;5389138;26;20000;-73
2024/04/11 09:47:26;;;;;;;8.75;3.65;;;13.70;99.90;;;;;;5385599;26;20053;-75
2024/04/11 09:49:55;;;;;;;8.23;3.50;;;13.70;99.90;;;;;;5387567;26;20014;-74
2024/04/11 09:52:27;;;;;;;10.75;4.03;;;13.80;99.90;;;;;;5379574;26;20451;-76
2024/04/11 09:54:55;;;;;;;5.43;3.22;;;13.80;99.90;;;;;;5386199;26;20015;-75
2024/04/11 09:57:23;;;;;;;12.35;4.13;;;13.80;99.90;;;;;;5392092;26;20103;-74
2024/04/11 09:59:50;;;;;;;6.95;3.75;;;13.80;99.90;;;;;;5389407;26;19999;-74
2024/04/11 10:02:18;;;;;;;13.30;5.65;;;13.80;99.90;;;;;;5392149;26;20012;-74
2024/04/11 10:04:44;;;;;;;8.13;4.32;;;13.80;99.90;;;;;;5392595;26;20538;-72
2024/04/11 10:07:12;;;;;;;8.43;4.00;;;13.80;99.90;;;;;;5386634;26;20077;-73
2024/04/11 10:09:47;;;;;;;9.05;4.10;;;13.90;99.90;;;;;;5388685;26;20011;-75
2024/04/11 10:12:19;;;;;;;9.05;3.50;;;13.90;99.90;;;;;;5391066;26;20020;-75
2024/04/11 10:14:57;;;;;;;10.52;3.70;;;13.90;99.90;;;;;;5391366;26;20103;-75
2024/04/11 10:17:29;;;;;;;8.75;3.97;;;13.90;99.90;;;;;;5379787;26;19996;-75
2024/04/11 10:20:07;;;;;;;7.88;4.03;;;13.90;99.90;;;;;;5397882;26;20000;-74
2024/04/11 10:22:42;;;;;;;7.70;3.40;;;13.90;99.90;;;;;;5386863;26;20005;-74
2024/04/11 10:25:09;;;;;;;8.27;3.58;;;13.90;99.90;;;;;;5386883;26;20004;-75
2024/04/11 10:27:37;;;;;;;10.00;3.83;;;13.90;99.90;;;;;;5391527;26;20458;-73
2024/04/11 10:30:06;;;;;;;7.20;3.55;;;13.90;99.90;;;;;;5389914;26;20002;-73
2024/04/11 10:32:39;;;;;;;10.57;3.97;;;13.90;99.90;;;;;;5390027;26;20030;-74
2024/04/11 10:35:07;;;;;;;7.60;4.35;;;13.90;99.90;;;;;;5387907;26;20088;-74
2024/04/11 10:37:39;;;;;;;12.13;4.53;;;13.90;99.90;;;;;;5389162;26;20000;-74
2024/04/11 10:40:09;;;;;;;16.17;4.78;;;14.00;99.90;;;;;;5395616;26;20520;-74
2024/04/11 10:43:11;;;;;;;9.05;4.03;;;14.00;99.90;;;;;;5387685;26;20358;-73
2024/04/11 10:45:29;;;;;;;6.63;3.40;;;14.00;99.90;;;;;;5380568;26;20491;-73
2024/04/11 10:47:57;;;;;;;6.07;3.60;;;14.20;99.90;;;;;;5396124;26;19999;-73
2024/04/11 10:50:23;;;;;;;8.60;3.80;;;14.20;99.90;;;;;;5396362;26;20480;-74
2024/04/11 10:52:49;;;;;;;8.82;3.35;;;14.30;99.90;;;;;;5388823;26;20019;-74
2024/04/11 10:55:28;;;;;;;6.82;3.30;;;14.30;99.90;;;;;;5391961;26;20382;-74
2024/04/11 10:58:13;;;;;;;9.27;3.80;;;14.40;99.90;;;;;;5387761;26;20549;-74
2024/04/11 11:03:46;;;;;;;5.75;3.20;;;14.60;99.90;;;;;;5379528;26;20048;-73
2024/04/11 11:06:25;;;;;;;5.30;3.05;;;14.60;99.90;;;;;;5386902;26;20000;-74
2024/04/11 11:09:10;;;;;;;6.55;2.70;;;14.60;99.90;;;;;;5381376;26;19996;-74
2024/04/11 11:11:40;;;;;;;5.75;2.45;;;14.60;99.90;;;;;;5398440;26;20023;-75
2024/04/11 11:14:08;;;;;;;6.18;2.58;;;14.70;99.90;;;;;;5381335;26;20019;-74
2024/04/11 11:16:37;;;;;;;7.50;2.88;;;14.70;99.90;;;;;;5386918;26;20015;-74
2024/04/11 11:19:05;;;;;;;6.28;2.80;;;14.70;99.90;;;;;;5385358;26;20007;-74
2024/04/11 11:21:34;;;;;;;5.65;2.28;;;14.80;99.90;;;;;;5384495;26;20012;-74
2024/04/11 11:24:06;;;;;;;4.47;2.28;;;14.90;99.90;;;;;;5391145;26;20041;-75
2024/04/11 11:26:43;;;;;;;8.45;2.28;;;15.00;99.90;;;;;;5385565;26;20031;-75
2024/04/11 11:29:10;;;;;;;5.28;2.63;;;15.10;99.90;;;;;;5392176;26;20542;-74
2024/04/11 11:31:43;;;;;;;5.25;2.30;;;15.10;99.90;;;;;;5384178;26;20069;-75
2024/04/11 11:34:09;;;;;;;5.70;1.83;;;15.20;99.90;;;;;;5385487;26;20510;-74
2024/04/11 11:36:45;;;;;;;5.43;2.53;;;15.40;99.90;;;;;;5389953;26;20015;-75
2024/04/11 11:39:17;;;;;;;4.47;2.05;;;15.40;99.90;;;;;;5390037;26;20023;-75
2024/04/11 11:42:38;;;;;;;3.58;1.90;;;15.50;99.90;;;;;;5396256;26;20067;-74
2024/04/11 11:45:26;;;;;;;4.57;2.60;;;15.50;99.90;;;;;;5374332;26;20004;-76
2024/04/11 11:47:36;;;;;;;7.00;2.45;;;15.50;99.90;;;;;;5387433;26;20331;-75
2024/04/11 11:50:11;;;;;;;6.45;2.45;;;15.50;99.90;;;;;;5388544;26;20011;-73
2024/04/11 11:52:42;;;;;;;4.05;2.53;;;15.50;99.90;;;;;;5392021;26;20332;-75
2024/04/11 11:55:08;;;;;;;4.75;2.03;;;15.50;99.90;;;;;;5382563;26;20011;-75
2024/04/11 11:57:40;;;;;;;5.05;2.88;;;15.50;99.90;;;;;;5391046;26;20130;-75
2024/04/11 12:00:22;;;;;;;6.45;2.30;;;15.50;99.90;;;;;;5383242;26;20036;-75
2024/04/11 12:02:52;;;;;;;8.25;2.50;;;15.50;99.90;;;;;;5391223;26;20051;-74
2024/04/11 12:05:27;;;;;;;5.57;2.67;;;15.40;99.90;;;;;;5386040;26;20003;-75
2024/04/11 12:07:59;;;;;;;7.35;2.38;;;15.50;99.90;;;;;;5385301;26;20009;-75
2024/04/11 12:10:29;;;;;;;7.80;2.70;;;15.50;99.90;;;;;;5389792;26;20634;-75
2024/04/11 12:13:18;;;;;;;6.20;2.33;;;15.50;99.90;;;;;;5387377;26;20000;-75
2024/04/11 12:15:48;;;;;;;5.13;2.63;;;15.60;99.90;;;;;;5387807;26;20054;-75
2024/04/11 12:18:21;;;;;;;6.90;3.50;;;15.80;99.90;;;;;;5393017;26;20901;-76
2024/04/11 12:20:47;;;;;;;3.83;2.17;;;15.90;99.90;;;;;;5390222;26;20000;-75
2024/04/11 12:23:14;;;;;;;3.95;2.47;;;15.90;99.90;;;;;;5389803;26;19995;-74
2024/04/11 12:25:41;;;;;;;4.95;2.67;;;16.00;99.90;;;;;;5384323;26;20000;-76
2024/04/11 12:28:09;;;;;;;5.38;2.47;;;15.90;99.90;;;;;;5395008;26;20006;-75
2024/04/11 12:30:36;;;;;;;4.22;2.30;;;15.90;99.90;;;;;;5392367;26;20011;-72
2024/04/11 12:33:05;;;;;;;7.30;2.05;;;15.90;99.90;;;;;;5389152;26;20014;-74
2024/04/11 12:35:41;;;;;;;4.72;2.13;;;16.00;99.90;;;;;;5385683;26;19999;-73
2024/04/11 12:38:12;;;;;;;4.18;2.17;;;16.00;99.90;;;;;;5383386;26;20000;-72
2024/04/11 12:40:39;;;;;;;3.90;1.65;;;15.90;99.90;;;;;;5387244;26;20008;-74
2024/04/11 12:43:05;;;;;;;2.72;1.80;;;15.90;99.90;;;;;;5391323;26;20008;-75
2024/04/11 12:45:31;;;;;;;7.10;2.13;;;15.80;99.90;;;;;;5377252;26;20000;-75
2024/04/11 12:48:04;;;;;;;6.65;2.35;;;15.80;99.90;;;;;;5390296;26;20000;-74
2024/04/11 12:50:36;;;;;;;6.60;3.17;;;15.80;99.90;;;;;;5385429;26;20011;-74
2024/04/11 12:53:11;;;;;;;4.82;2.20;;;15.70;99.90;;;;;;5384076;26;20077;-74
2024/04/11 12:55:38;;;;;;;4.28;2.05;;;15.80;99.90;;;;;;5388977;26;20070;-76
2024/04/11 12:58:06;;;;;;;8.52;2.40;;;15.80;99.90;;;;;;5380968;26;20012;-74